Terminal Aerodrome Forecast
Issued by NWS

Home | Current Version | Previous Version | Text Only | Print | Product List | Glossary On
Versions: 1 2 3 4 5 6 7 8 9 10 11 12 13
854
FTUS41 KILN 250533
TAFLCK
TAF
KLCK 250533Z 2506/2606 19005KT P6SM BKN070
     FM251400 19010KT P6SM BKN110
     FM252300 14007KT P6SM OVC070=

USA.gov is the U.S. government's official web portal to all federal, state and local government web resources and services.